createdAt,value
2023-01-30T00:02:26.853Z,7.33
2023-01-30T00:07:35.395Z,7.60
2023-01-30T00:12:38.797Z,7.10
2023-01-30T00:17:41.998Z,6.50
2023-01-30T00:22:59.225Z,8.20
2023-01-30T00:28:04.146Z,7.33
2023-01-30T00:33:07.254Z,7.10
2023-01-30T00:38:11.883Z,7.30
2023-01-30T00:43:34.361Z,7.47
2023-01-30T00:48:37.951Z,7.63
2023-01-30T00:53:42.513Z,7.97
2023-01-30T00:58:45.706Z,7.90
2023-01-30T01:03:48.923Z,7.80
2023-01-30T01:08:53.564Z,7.47
2023-01-30T01:13:58.021Z,7.20
2023-01-30T01:19:01.805Z,7.50
2023-01-30T01:24:09.004Z,7.50
2023-01-30T01:29:14.319Z,7.87
2023-01-30T01:34:17.477Z,7.90
2023-01-30T01:39:23.124Z,8.10
2023-01-30T01:44:26.459Z,7.40
2023-01-30T01:49:32.261Z,7.67
2023-01-30T01:54:41.430Z,7.20
2023-01-30T01:59:50.138Z,7.93
2023-01-30T02:05:06.480Z,7.23
2023-01-30T02:10:31.983Z,6.13
2023-01-30T02:15:35.630Z,7.03
2023-01-30T02:20:58.189Z,7.70
2023-01-30T02:26:40.207Z,7.03
2023-01-30T02:31:53.641Z,7.07
2023-01-30T02:37:10.158Z,8.27
2023-01-30T02:42:20.960Z,6.60
2023-01-30T02:47:31.458Z,6.57
2023-01-30T02:52:35.490Z,6.40
2023-01-30T02:57:39.254Z,6.67
2023-01-30T03:03:08.240Z,6.63
2023-01-30T03:08:21.533Z,6.90
2023-01-30T03:13:35.910Z,6.20
2023-01-30T03:18:42.290Z,6.50
2023-01-30T03:23:46.960Z,5.23
2023-01-30T03:28:51.675Z,6.13
2023-01-30T03:33:56.313Z,6.00
2023-01-30T03:38:59.584Z,6.30
2023-01-30T03:44:03.003Z,6.77
2023-01-30T03:49:07.579Z,5.53
2023-01-30T03:54:10.707Z,6.20
2023-01-30T03:59:14.214Z,6.20
2023-01-30T04:04:18.841Z,6.73
2023-01-30T04:09:22.210Z,6.70
2023-01-30T04:14:25.779Z,6.00
2023-01-30T04:19:30.487Z,7.00
2023-01-30T04:24:33.651Z,6.80
2023-01-30T04:29:36.993Z,6.40
2023-01-30T04:34:42.286Z,6.83
2023-01-30T04:39:45.617Z,6.83
2023-01-30T04:44:48.797Z,6.60
2023-01-30T04:49:53.777Z,5.77
2023-01-30T04:54:56.999Z,6.57
2023-01-30T05:00:00.218Z,7.00
2023-01-30T05:05:05.093Z,7.03
2023-01-30T05:10:09.244Z,7.03
2023-01-30T05:15:13.306Z,6.90
2023-01-30T05:20:17.875Z,6.80
2023-01-30T05:25:21.228Z,7.07
2023-01-30T05:30:24.421Z,6.47
2023-01-30T05:35:29.167Z,6.30
2023-01-30T05:40:32.232Z,6.67
2023-01-30T05:45:35.357Z,6.27
2023-01-30T05:50:39.996Z,6.53
2023-01-30T05:55:43.917Z,6.70
2023-01-30T06:01:02.333Z,7.07
2023-01-30T06:06:07.630Z,6.67
2023-01-30T06:11:27.190Z,6.67
2023-01-30T06:16:30.559Z,6.43
2023-01-30T06:21:35.343Z,6.57
2023-01-30T06:26:38.413Z,7.00
2023-01-30T06:31:41.593Z,6.93
2023-01-30T06:36:46.214Z,6.10
2023-01-30T06:41:55.039Z,7.13
2023-01-30T06:46:58.680Z,6.33
2023-01-30T06:52:11.465Z,6.13
2023-01-30T06:57:14.924Z,6.10
2023-01-30T07:02:19.198Z,5.20
2023-01-30T07:07:23.717Z,5.30
2023-01-30T07:12:27.751Z,5.30
2023-01-30T07:17:31.337Z,4.90
2023-01-30T07:22:35.943Z,5.70
2023-01-30T07:27:41.311Z,5.03
2023-01-30T07:32:44.484Z,5.60
2023-01-30T07:37:49.871Z,5.10
2023-01-30T07:43:01.053Z,4.43
2023-01-30T07:48:04.391Z,4.70
2023-01-30T07:53:11.927Z,4.60
2023-01-30T07:58:16.100Z,3.93
2023-01-30T08:03:19.622Z,4.33
2023-01-30T08:08:24.278Z,3.87
2023-01-30T08:13:27.973Z,4.00
2023-01-30T08:18:31.823Z,3.83
2023-01-30T08:23:36.415Z,3.33
2023-01-30T08:28:41.096Z,3.10
2023-01-30T08:33:44.683Z,3.27
2023-01-30T08:38:49.309Z,2.90
2023-01-30T08:43:52.373Z,2.80
2023-01-30T08:48:55.564Z,2.80
2023-01-30T08:54:00.439Z,3.23
2023-01-30T08:59:03.680Z,2.80
2023-01-30T09:04:08.565Z,2.63
2023-01-30T09:09:13.191Z,2.50
2023-01-30T09:14:19.775Z,2.70
2023-01-30T09:19:22.917Z,2.20
2023-01-30T09:24:27.902Z,2.20
2023-01-30T09:29:31.220Z,2.40
2023-01-30T09:34:34.732Z,2.37
2023-01-30T09:39:39.394Z,2.30
2023-01-30T09:45:03.865Z,2.00
2023-01-30T09:50:25.078Z,2.17
2023-01-30T09:55:32.577Z,1.97
2023-01-30T10:00:37.880Z,1.90
2023-01-30T10:05:46.369Z,1.83
2023-01-30T10:11:09.574Z,2.00
2023-01-30T10:16:20.561Z,2.30
2023-01-30T10:21:36.727Z,1.70
2023-01-30T10:26:42.814Z,2.10
2023-01-30T10:31:50.352Z,2.03
2023-01-30T10:37:01.503Z,2.00
2023-01-30T10:42:12.611Z,1.77
2023-01-30T10:47:46.314Z,2.10
2023-01-30T10:52:57.362Z,2.43
2023-01-30T10:58:08.913Z,2.50
2023-01-30T11:03:29.734Z,2.20
2023-01-30T11:08:35.481Z,2.90
2023-01-30T11:13:40.179Z,2.03
2023-01-30T11:19:19.389Z,2.87
2023-01-30T11:24:18.249Z,2.27
2023-01-30T11:29:33.832Z,2.90
2023-01-30T11:34:36.930Z,2.20
2023-01-30T11:39:51.761Z,2.07
2023-01-30T11:45:16.062Z,2.20
2023-01-30T11:50:23.338Z,2.03
2023-01-30T11:55:28.853Z,2.13
2023-01-30T12:00:40.927Z,2.37
2023-01-30T12:05:47.923Z,2.97
2023-01-30T12:10:55.346Z,2.13
2023-01-30T12:16:22.639Z,2.30
2023-01-30T12:21:35.963Z,2.20
2023-01-30T12:26:45.673Z,1.90
2023-01-30T12:31:53.411Z,1.90
2023-01-30T12:37:09.194Z,1.93
2023-01-30T12:42:27.718Z,2.03
2023-01-30T12:47:47.770Z,1.50
2023-01-30T12:53:06.285Z,1.40
2023-01-30T12:58:16.378Z,1.93
2023-01-30T13:03:27.976Z,1.40
2023-01-30T13:08:55.505Z,1.10
2023-01-30T13:14:07.013Z,1.50
2023-01-30T13:19:25.334Z,1.20
2023-01-30T13:24:42.488Z,1.33
2023-01-30T13:29:47.049Z,1.50
2023-01-30T13:34:54.640Z,1.47
2023-01-30T13:40:04.270Z,1.10
2023-01-30T13:45:16.287Z,1.10
2023-01-30T13:50:35.799Z,1.10
2023-01-30T13:55:48.715Z,1.73
2023-01-30T14:00:56.009Z,1.70
2023-01-30T14:06:15.713Z,1.13
2023-01-30T14:11:33.969Z,1.30
2023-01-30T14:16:45.675Z,1.43
2023-01-30T14:21:58.147Z,1.40
2023-01-30T14:27:03.985Z,1.07
2023-01-30T14:32:54.982Z,1.60
2023-01-30T14:38:14.935Z,1.10
2023-01-30T14:43:53.281Z,1.10
2023-01-30T14:49:05.216Z,1.23
2023-01-30T14:54:23.438Z,1.10
2023-01-30T14:59:32.258Z,1.63
2023-01-30T15:04:43.601Z,1.37
2023-01-30T15:09:55.153Z,1.20
2023-01-30T15:15:12.533Z,1.50
2023-01-30T15:20:35.698Z,1.40
2023-01-30T15:25:53.111Z,1.60
2023-01-30T15:31:05.581Z,1.23
2023-01-30T15:36:20.600Z,1.13
2023-01-30T15:41:28.568Z,1.40
2023-01-30T15:46:44.740Z,2.40
2023-01-30T15:51:49.463Z,1.80
2023-01-30T15:57:00.839Z,2.00
2023-01-30T16:02:08.148Z,1.40
2023-01-30T16:07:19.515Z,1.43
2023-01-30T16:12:28.709Z,1.77
2023-01-30T16:17:36.514Z,2.07
2023-01-30T16:22:49.524Z,1.73
2023-01-30T16:27:55.347Z,2.27
2023-01-30T16:33:10.614Z,2.10
2023-01-30T16:38:37.380Z,1.73
2023-01-30T16:43:44.468Z,1.60
2023-01-30T16:48:52.985Z,2.50
2023-01-30T16:54:06.161Z,1.70
2023-01-30T16:59:23.405Z,1.87
2023-01-30T17:04:36.798Z,1.40
2023-01-30T17:09:43.685Z,1.17
2023-01-30T17:14:50.354Z,2.00
2023-01-30T17:20:00.481Z,1.63
2023-01-30T17:25:06.475Z,1.70
2023-01-30T17:30:19.345Z,1.60
2023-01-30T17:35:26.141Z,2.03
2023-01-30T17:40:37.967Z,1.40
2023-01-30T17:45:42.888Z,2.30
2023-01-30T17:50:46.734Z,2.20
2023-01-30T17:55:53.082Z,2.03
2023-01-30T18:00:57.985Z,2.00
2023-01-30T18:06:07.180Z,1.60
2023-01-30T18:11:12.107Z,2.20
2023-01-30T18:16:26.950Z,2.20
2023-01-30T18:21:30.732Z,1.57
2023-01-30T18:26:35.360Z,1.87
2023-01-30T18:31:41.217Z,2.33
2023-01-30T18:36:44.675Z,2.13
2023-01-30T18:41:47.898Z,1.80
2023-01-30T18:46:52.879Z,2.03
2023-01-30T18:51:56.343Z,2.10
2023-01-30T18:56:59.572Z,1.53
2023-01-30T19:02:04.116Z,1.70
2023-01-30T19:07:07.422Z,1.97
2023-01-30T19:12:34.254Z,1.57
2023-01-30T19:17:39.550Z,1.50
2023-01-30T19:22:43.044Z,1.67
2023-01-30T19:27:46.581Z,2.00
2023-01-30T19:32:53.553Z,1.70
2023-01-30T19:38:00.373Z,2.03
2023-01-30T19:43:10.858Z,1.33
2023-01-30T19:48:16.873Z,2.20
2023-01-30T19:53:20.259Z,1.63
2023-01-30T19:58:23.632Z,1.87
2023-01-30T20:03:28.515Z,1.60
2023-01-30T20:08:32.950Z,2.20
2023-01-30T20:13:36.995Z,3.77
2023-01-30T20:18:46.454Z,2.80
2023-01-30T20:23:52.700Z,2.50
2023-01-30T20:28:56.922Z,2.30
2023-01-30T20:34:02.163Z,2.60
2023-01-30T20:39:07.580Z,10.67
2023-01-30T20:44:15.672Z,6.03
2023-01-30T20:49:21.555Z,3.93
2023-01-30T20:54:25.258Z,2.00
2023-01-30T20:59:29.155Z,2.27
2023-01-30T21:04:33.851Z,1.83
2023-01-30T21:09:37.205Z,2.13
2023-01-30T21:14:41.369Z,1.77
2023-01-30T21:19:46.161Z,1.80
2023-01-30T21:24:49.929Z,1.73
2023-01-30T21:29:53.124Z,1.60
2023-01-30T21:34:58.175Z,2.27
2023-01-30T21:40:18.582Z,2.50
2023-01-30T21:45:32.331Z,2.80
2023-01-30T21:50:36.907Z,2.37
2023-01-30T21:55:43.703Z,2.67
2023-01-30T22:00:47.176Z,2.60
2023-01-30T22:05:51.670Z,1.93
2023-01-30T22:11:05.833Z,2.47
2023-01-30T22:16:11.478Z,1.87
2023-01-30T22:21:18.664Z,1.93
2023-01-30T22:26:25.545Z,1.87
2023-01-30T22:31:31.889Z,2.20
2023-01-30T22:36:41.394Z,2.27
2023-01-30T22:41:44.967Z,2.57
2023-01-30T22:46:51.128Z,2.83
2023-01-30T22:51:55.894Z,3.20
2023-01-30T22:56:59.638Z,2.77
2023-01-30T23:02:03.479Z,2.73
2023-01-30T23:07:08.681Z,2.90
2023-01-30T23:12:41.416Z,1.93
2023-01-30T23:18:02.432Z,2.60
2023-01-30T23:23:08.006Z,3.20
2023-01-30T23:28:11.464Z,2.47
2023-01-30T23:33:15.167Z,2.10
2023-01-30T23:38:20.176Z,2.23
2023-01-30T23:43:23.414Z,2.07
2023-01-30T23:48:26.667Z,1.73
2023-01-30T23:53:31.302Z,2.43
2023-01-30T23:58:35.176Z,2.60
